Time;durP1;ratioP1;P1;durP2;ratioP2;P2;SDS_P1;SDS_P2;PMS_P1;PMS_P2;Temp;Humidity;BMP_temperature;BMP_pressure;BME280_temperature;BME280_humidity;BME280_pressure;Samples;Min_cycle;Max_cycle;Signal;HPM_P1;HPM_P2
2022/07/30 00:01:06;;;;;;;0.10;0.10;;;;;;;;;;6225747;22;20095;-93
2022/07/30 00:03:33;;;;;;;0.10;0.10;;;;;;;;;;6250788;22;20039;-93
2022/07/30 00:05:59;;;;;;;0.10;0.10;;;;;;;;;;6250645;22;20011;-93
2022/07/30 00:08:26;;;;;;;0.10;0.10;;;;;;;;;;6227641;22;20069;-93
2022/07/30 00:10:52;;;;;;;0.10;0.10;;;;;;;;;;6246116;22;20011;-94
2022/07/30 00:13:18;;;;;;;0.10;0.10;;;;;;;;;;6226037;22;20012;-95
2022/07/30 00:15:44;;;;;;;0.10;0.10;;;;;;;;;;6255357;22;20007;-94
2022/07/30 00:18:10;;;;;;;0.10;0.10;;;;;;;;;;6224016;22;20043;-95
2022/07/30 00:20:39;;;;;;;0.10;0.10;;;;;;;;;;6224449;22;20016;-95
2022/07/30 00:23:05;;;;;;;0.10;0.10;;;;;;;;;;6231023;22;20011;-94
2022/07/30 00:25:38;;;;;;;0.10;0.10;;;;;;;;;;6255745;22;20022;-94
2022/07/30 00:28:04;;;;;;;0.10;0.10;;;;;;;;;;6255119;22;20042;-94
2022/07/30 00:30:30;;;;;;;0.10;0.10;;;;;;;;;;6253654;22;20062;-93
2022/07/30 00:32:56;;;;;;;0.10;0.10;;;;;;;;;;6246139;22;20015;-93
2022/07/30 00:35:22;;;;;;;0.10;0.10;;;;;;;;;;6230708;22;20019;-90
2022/07/30 00:37:49;;;;;;;0.10;0.10;;;;;;;;;;6280299;22;20011;-93
2022/07/30 00:40:15;;;;;;;0.10;0.10;;;;;;;;;;6254781;22;20124;-93
2022/07/30 00:42:42;;;;;;;0.10;0.10;;;;;;;;;;6225235;22;20511;-95
2022/07/30 00:45:08;;;;;;;0.10;0.10;;;;;;;;;;6224972;22;20047;-94
2022/07/30 00:47:34;;;;;;;0.10;0.10;;;;;;;;;;6224628;22;20448;-92
2022/07/30 00:50:03;;;;;;;0.10;0.10;;;;;;;;;;6249905;22;20061;-93
2022/07/30 00:52:29;;;;;;;0.10;0.10;;;;;;;;;;6225929;22;20070;-95
2022/07/30 00:54:57;;;;;;;0.10;0.10;;;;;;;;;;6245848;22;20098;-91
2022/07/30 00:57:23;;;;;;;0.10;0.10;;;;;;;;;;6226499;22;20119;-93
2022/07/30 00:59:49;;;;;;;0.10;0.10;;;;;;;;;;6254065;22;20015;-93
2022/07/30 01:02:15;;;;;;;0.10;0.10;;;;;;;;;;6224622;22;20020;-91
2022/07/30 01:04:43;;;;;;;0.10;0.10;;;;;;;;;;6268235;22;20007;-94
2022/07/30 01:07:10;;;;;;;0.10;0.10;;;;;;;;;;6224347;22;20496;-94
2022/07/30 01:09:41;;;;;;;0.10;0.10;;;;;;;;;;6228950;22;20011;-95
2022/07/30 01:12:08;;;;;;;0.10;0.10;;;;;;;;;;6254922;22;20011;-94
2022/07/30 01:14:35;;;;;;;0.10;0.10;;;;;;;;;;6223243;22;20008;-96
2022/07/30 01:17:01;;;;;;;0.13;0.13;;;;;;;;;;6241480;22;20043;-94
2022/07/30 01:19:47;;;;;;;0.10;0.10;;;;;;;;;;6226993;22;20038;-94
2022/07/30 01:22:19;;;;;;;0.10;0.10;;;;;;;;;;6254889;22;20022;-95
2022/07/30 01:24:55;;;;;;;0.10;0.10;;;;;;;;;;6280761;22;20022;-94
2022/07/30 01:27:21;;;;;;;0.10;0.10;;;;;;;;;;6251164;22;20016;-95
2022/07/30 01:29:48;;;;;;;0.10;0.10;;;;;;;;;;6243819;22;20033;-95
2022/07/30 01:32:14;;;;;;;0.10;0.10;;;;;;;;;;6224598;22;20018;-94
2022/07/30 01:34:40;;;;;;;0.10;0.10;;;;;;;;;;6224928;22;20015;-96
2022/07/30 01:37:07;;;;;;;0.10;0.10;;;;;;;;;;6224168;22;20459;-94
2022/07/30 01:39:33;;;;;;;0.10;0.10;;;;;;;;;;6223545;22;20409;-94
2022/07/30 01:42:04;;;;;;;0.10;0.10;;;;;;;;;;6222877;22;20107;-95
2022/07/30 01:44:34;;;;;;;0.10;0.10;;;;;;;;;;6226424;22;20020;-95
2022/07/30 01:47:05;;;;;;;0.10;0.10;;;;;;;;;;6272453;22;20029;-96
2022/07/30 01:49:31;;;;;;;0.20;0.20;;;;;;;;;;6227671;22;20012;-96
2022/07/30 01:51:58;;;;;;;0.10;0.10;;;;;;;;;;6254863;22;20432;-96
2022/07/30 01:54:53;;;;;;;0.10;0.10;;;;;;;;;;6225443;22;20012;-94
2022/07/30 01:57:45;;;;;;;0.10;0.10;;;;;;;;;;6255571;22;20019;-95
2022/07/30 02:00:12;;;;;;;0.10;0.10;;;;;;;;;;6280484;22;20011;-95
2022/07/30 02:02:40;;;;;;;0.10;0.10;;;;;;;;;;6254419;22;20015;-93
2022/07/30 02:05:06;;;;;;;0.20;0.20;;;;;;;;;;6254908;22;20462;-94
2022/07/30 02:07:34;;;;;;;0.10;0.10;;;;;;;;;;6252688;22;20051;-94
2022/07/30 02:10:05;;;;;;;0.10;0.10;;;;;;;;;;6246958;22;20008;-93
2022/07/30 02:12:31;;;;;;;0.10;0.10;;;;;;;;;;6228199;22;20011;-95
2022/07/30 02:15:10;;;;;;;0.10;0.10;;;;;;;;;;6254540;22;20011;-94
2022/07/30 02:17:42;;;;;;;0.10;0.10;;;;;;;;;;6223910;22;20054;-94
2022/07/30 02:20:11;;;;;;;0.10;0.10;;;;;;;;;;6243031;22;20012;-95
2022/07/30 02:22:39;;;;;;;0.10;0.10;;;;;;;;;;6228910;22;20433;-93
2022/07/30 02:25:05;;;;;;;0.10;0.10;;;;;;;;;;6254631;22;20070;-94
2022/07/30 02:27:31;;;;;;;0.10;0.10;;;;;;;;;;6253367;22;20098;-94
2022/07/30 02:29:58;;;;;;;0.10;0.10;;;;;;;;;;6271238;22;20090;-94
2022/07/30 02:32:24;;;;;;;0.10;0.10;;;;;;;;;;6226026;22;20020;-95
2022/07/30 02:34:51;;;;;;;0.10;0.10;;;;;;;;;;6254698;22;20047;-94
2022/07/30 02:37:17;;;;;;;0.10;0.10;;;;;;;;;;6223435;22;20095;-94
2022/07/30 02:39:43;;;;;;;0.10;0.10;;;;;;;;;;6242364;22;20061;-94
2022/07/30 02:42:10;;;;;;;0.10;0.10;;;;;;;;;;6225891;22;20379;-93
2022/07/30 02:44:36;;;;;;;0.10;0.10;;;;;;;;;;6230187;22;20034;-93
2022/07/30 02:47:02;;;;;;;0.10;0.10;;;;;;;;;;6256130;22;20007;-95
2022/07/30 02:49:28;;;;;;;0.10;0.10;;;;;;;;;;6253744;22;20016;-93
2022/07/30 02:51:54;;;;;;;0.10;0.10;;;;;;;;;;6246757;22;20041;-94
2022/07/30 02:54:20;;;;;;;0.10;0.10;;;;;;;;;;6226876;22;20015;-94
2022/07/30 02:56:47;;;;;;;0.10;0.10;;;;;;;;;;6255886;22;20057;-94
2022/07/30 02:59:25;;;;;;;;;;;;;;;;;;;;;
2022/07/30 03:01:51;;;;;;;0.10;0.10;;;;;;;;;;6251258;22;20077;-93
2022/07/30 03:04:18;;;;;;;0.10;0.10;;;;;;;;;;6226682;22;20016;-94
2022/07/30 03:06:44;;;;;;;0.10;0.10;;;;;;;;;;6244211;22;20019;-95
2022/07/30 03:09:10;;;;;;;0.10;0.10;;;;;;;;;;6224747;22;20016;-95
2022/07/30 03:11:36;;;;;;;0.10;0.10;;;;;;;;;;6225542;22;20094;-94
2022/07/30 03:14:06;;;;;;;0.15;0.15;;;;;;;;;;6231243;22;20019;-95
2022/07/30 03:16:32;;;;;;;0.10;0.10;;;;;;;;;;6255437;22;20087;-95
2022/07/30 03:18:58;;;;;;;0.10;0.10;;;;;;;;;;6255896;22;20054;-94
2022/07/30 03:21:25;;;;;;;0.10;0.10;;;;;;;;;;6226416;22;20012;-95
2022/07/30 03:23:51;;;;;;;0.10;0.10;;;;;;;;;;6271775;22;20019;-95
2022/07/30 03:26:17;;;;;;;0.10;0.10;;;;;;;;;;6227744;22;20012;-94
2022/07/30 03:28:43;;;;;;;0.10;0.10;;;;;;;;;;6256526;22;20490;-95
2022/07/30 03:31:10;;;;;;;0.10;0.10;;;;;;;;;;6225285;22;20091;-95
2022/07/30 03:33:36;;;;;;;0.10;0.10;;;;;;;;;;6225135;22;20011;-96
2022/07/30 03:36:02;;;;;;;0.10;0.10;;;;;;;;;;6231847;22;20436;-93
2022/07/30 03:38:28;;;;;;;0.10;0.10;;;;;;;;;;6256891;22;20019;-94
2022/07/30 03:40:55;;;;;;;0.10;0.10;;;;;;;;;;6255988;22;20317;-95
2022/07/30 03:43:21;;;;;;;0.10;0.10;;;;;;;;;;6226261;22;20022;-95
2022/07/30 03:45:47;;;;;;;0.10;0.10;;;;;;;;;;6271718;22;20019;-95
2022/07/30 03:48:13;;;;;;;0.10;0.10;;;;;;;;;;6251272;22;20090;-94
2022/07/30 03:50:39;;;;;;;0.10;0.10;;;;;;;;;;6226233;22;20012;-94
2022/07/30 03:53:06;;;;;;;0.10;0.10;;;;;;;;;;6225973;22;20030;-93
2022/07/30 03:55:32;;;;;;;0.10;0.10;;;;;;;;;;6228628;22;20012;-94
2022/07/30 03:57:58;;;;;;;0.10;0.10;;;;;;;;;;6281282;22;20018;-95
2022/07/30 04:00:25;;;;;;;0.10;0.10;;;;;;;;;;6255895;22;20011;-94
2022/07/30 04:02:51;;;;;;;0.10;0.10;;;;;;;;;;6245769;22;20011;-92
2022/07/30 04:05:17;;;;;;;0.10;0.10;;;;;;;;;;6225320;22;20016;-92
2022/07/30 04:07:43;;;;;;;0.10;0.10;;;;;;;;;;6255279;22;20061;-93
2022/07/30 04:10:09;;;;;;;0.10;0.10;;;;;;;;;;6281594;22;20053;-93
2022/07/30 04:12:35;;;;;;;0.10;0.10;;;;;;;;;;6224827;22;20016;-93
2022/07/30 04:15:01;;;;;;;0.10;0.10;;;;;;;;;;6242571;22;20007;-95
2022/07/30 04:17:31;;;;;;;0.10;0.10;;;;;;;;;;6228271;22;20315;-95
2022/07/30 04:19:59;;;;;;;0.10;0.10;;;;;;;;;;6255374;22;20015;-94
2022/07/30 04:22:31;;;;;;;0.10;0.10;;;;;;;;;;6226055;22;20020;-94
2022/07/30 04:24:58;;;;;;;0.10;0.10;;;;;;;;;;6246707;22;20015;-93
2022/07/30 04:27:24;;;;;;;0.10;0.10;;;;;;;;;;6251793;22;20096;-95
2022/07/30 04:29:53;;;;;;;0.10;0.10;;;;;;;;;;6254709;22;20033;-94
2022/07/30 04:32:19;;;;;;;0.10;0.10;;;;;;;;;;6251059;22;20453;-94
2022/07/30 04:34:46;;;;;;;0.10;0.10;;;;;;;;;;6244265;22;20046;-93
2022/07/30 04:37:12;;;;;;;0.10;0.10;;;;;;;;;;6225154;22;20063;-93
2022/07/30 04:39:38;;;;;;;0.10;0.10;;;;;;;;;;6224468;22;20027;-93
2022/07/30 04:42:05;;;;;;;0.10;0.10;;;;;;;;;;6223249;22;20016;-93
2022/07/30 04:44:31;;;;;;;0.10;0.10;;;;;;;;;;6276725;22;20448;-92
2022/07/30 04:46:57;;;;;;;0.10;0.10;;;;;;;;;;6271604;22;20064;-94
2022/07/30 04:49:23;;;;;;;0.10;0.10;;;;;;;;;;6226279;22;20012;-92
2022/07/30 04:51:49;;;;;;;0.10;0.10;;;;;;;;;;6254985;22;20336;-93
2022/07/30 04:54:15;;;;;;;0.10;0.10;;;;;;;;;;6224636;22;20012;-93
2022/07/30 04:56:41;;;;;;;0.10;0.10;;;;;;;;;;6242767;22;20012;-93
2022/07/30 04:59:07;;;;;;;0.10;0.10;;;;;;;;;;6224573;22;20011;-93
2022/07/30 05:01:36;;;;;;;0.10;0.10;;;;;;;;;;6253791;22;20018;-93
2022/07/30 05:04:03;;;;;;;0.10;0.10;;;;;;;;;;6254716;22;20171;-94
2022/07/30 05:06:32;;;;;;;0.10;0.10;;;;;;;;;;6252355;22;20022;-93
2022/07/30 05:08:58;;;;;;;0.10;0.10;;;;;;;;;;6284594;22;20018;-94
2022/07/30 05:11:24;;;;;;;0.10;0.10;;;;;;;;;;6277964;22;20428;-92
2022/07/30 05:13:50;;;;;;;0.10;0.10;;;;;;;;;;6244399;22;20022;-93
2022/07/30 05:16:16;;;;;;;0.10;0.10;;;;;;;;;;6223530;22;20341;-92
2022/07/30 05:18:42;;;;;;;0.10;0.10;;;;;;;;;;6243648;22;20042;-94
2022/07/30 05:21:08;;;;;;;0.10;0.10;;;;;;;;;;6249684;22;20452;-94
2022/07/30 05:23:34;;;;;;;0.10;0.10;;;;;;;;;;6228440;22;20340;-93
2022/07/30 05:26:00;;;;;;;0.10;0.10;;;;;;;;;;6254342;22;20022;-92
2022/07/30 05:28:30;;;;;;;0.10;0.10;;;;;;;;;;6227595;22;20016;-93
2022/07/30 05:31:05;;;;;;;0.10;0.10;;;;;;;;;;6306629;22;20301;-93
2022/07/30 05:33:31;;;;;;;0.10;0.10;;;;;;;;;;6278565;22;20018;-93
2022/07/30 05:35:59;;;;;;;0.10;0.10;;;;;;;;;;6271050;22;20337;-93
2022/07/30 05:38:25;;;;;;;0.10;0.10;;;;;;;;;;6225633;22;20031;-91
2022/07/30 05:40:51;;;;;;;0.10;0.10;;;;;;;;;;6269891;22;20161;-92
2022/07/30 05:43:17;;;;;;;0.10;0.10;;;;;;;;;;6249426;22;20019;-93
2022/07/30 05:45:43;;;;;;;0.10;0.10;;;;;;;;;;6254641;22;20017;-93
2022/07/30 05:48:09;;;;;;;0.10;0.10;;;;;;;;;;6249105;22;20043;-94
2022/07/30 05:50:35;;;;;;;0.10;0.10;;;;;;;;;;6228884;22;20097;-94
2022/07/30 05:53:01;;;;;;;0.10;0.10;;;;;;;;;;6271703;22;20086;-92
2022/07/30 05:55:27;;;;;;;0.20;0.20;;;;;;;;;;6225822;22;20008;-92
2022/07/30 05:57:53;;;;;;;0.10;0.10;;;;;;;;;;6253869;22;20030;-93
2022/07/30 06:00:19;;;;;;;0.10;0.10;;;;;;;;;;6223420;22;20016;-94
2022/07/30 06:02:45;;;;;;;0.10;0.10;;;;;;;;;;6242747;22;20015;-94
2022/07/30 06:05:11;;;;;;;0.10;0.10;;;;;;;;;;6223790;22;20015;-94
2022/07/30 06:07:37;;;;;;;0.10;0.10;;;;;;;;;;6253918;22;20011;-93
2022/07/30 06:10:06;;;;;;;0.10;0.10;;;;;;;;;;6253699;22;20328;-94
2022/07/30 06:12:32;;;;;;;0.10;0.10;;;;;;;;;;6226269;22;20015;-91
2022/07/30 06:14:58;;;;;;;0.10;0.10;;;;;;;;;;6244214;22;20436;-91
2022/07/30 06:17:24;;;;;;;0.20;0.10;;;;;;;;;;6226453;22;20031;-90
2022/07/30 06:19:50;;;;;;;0.10;0.10;;;;;;;;;;6280806;22;20351;-90
2022/07/30 06:22:16;;;;;;;0.10;0.10;;;;;;;;;;6255066;22;20041;-92
2022/07/30 06:24:42;;;;;;;0.10;0.10;;;;;;;;;;6243292;22;20011;-89
2022/07/30 06:27:08;;;;;;;0.10;0.10;;;;;;;;;;6224490;22;20352;-91
2022/07/30 06:29:35;;;;;;;0.10;0.10;;;;;;;;;;6228553;22;20012;-91
2022/07/30 06:32:01;;;;;;;0.20;0.20;;;;;;;;;;6254009;22;20317;-90
2022/07/30 06:34:27;;;;;;;0.10;0.10;;;;;;;;;;6252326;22;20035;-89
2022/07/30 06:36:52;;;;;;;0.10;0.10;;;;;;;;;;6270242;22;20007;-90
2022/07/30 06:39:18;;;;;;;0.10;0.10;;;;;;;;;;6225045;22;20016;-88
2022/07/30 06:41:44;;;;;;;0.10;0.10;;;;;;;;;;6280136;22;20195;-88
2022/07/30 06:44:11;;;;;;;0.10;0.10;;;;;;;;;;6280234;22;20460;-89
2022/07/30 06:46:37;;;;;;;0.10;0.10;;;;;;;;;;6254554;22;20019;-87
2022/07/30 06:49:03;;;;;;;0.10;0.10;;;;;;;;;;6272475;22;20014;-88
2022/07/30 06:51:29;;;;;;;0.10;0.10;;;;;;;;;;6279975;22;20015;-87
2022/07/30 06:53:55;;;;;;;0.10;0.10;;;;;;;;;;6271010;22;20455;-88
2022/07/30 06:56:21;;;;;;;0.20;0.20;;;;;;;;;;6250829;22;20114;-88
2022/07/30 06:58:47;;;;;;;0.10;0.10;;;;;;;;;;6279809;22;20392;-86
2022/07/30 07:01:13;;;;;;;0.20;0.20;;;;;;;;;;6279921;22;20034;-85
2022/07/30 07:03:39;;;;;;;0.10;0.10;;;;;;;;;;6280071;22;20011;-85
2022/07/30 07:06:05;;;;;;;0.10;0.10;;;;;;;;;;6279380;22;20014;-85
2022/07/30 07:08:31;;;;;;;0.20;0.20;;;;;;;;;;6279612;22;20391;-86
2022/07/30 07:10:57;;;;;;;0.10;0.10;;;;;;;;;;6279934;22;20011;-88
2022/07/30 07:13:23;;;;;;;0.10;0.10;;;;;;;;;;6254019;22;20011;-86
2022/07/30 07:15:49;;;;;;;0.10;0.10;;;;;;;;;;6243851;22;20012;-87
2022/07/30 07:18:15;;;;;;;0.10;0.10;;;;;;;;;;6247237;22;20011;-86
2022/07/30 07:20:42;;;;;;;0.10;0.10;;;;;;;;;;6279559;22;20282;-85
2022/07/30 07:23:08;;;;;;;0.10;0.10;;;;;;;;;;6279326;22;20089;-86
2022/07/30 07:25:34;;;;;;;0.13;0.13;;;;;;;;;;6279159;22;20018;-86
2022/07/30 07:28:00;;;;;;;0.13;0.13;;;;;;;;;;6279132;22;20069;-87
2022/07/30 07:30:26;;;;;;;0.10;0.10;;;;;;;;;;6279155;22;20011;-86
2022/07/30 07:32:52;;;;;;;0.10;0.10;;;;;;;;;;6279194;22;20018;-86
2022/07/30 07:35:18;;;;;;;0.10;0.10;;;;;;;;;;6279659;22;20086;-85
2022/07/30 07:37:44;;;;;;;0.10;0.10;;;;;;;;;;6278719;22;20337;-85
2022/07/30 07:40:10;;;;;;;0.10;0.10;;;;;;;;;;6279188;22;20027;-85
2022/07/30 07:42:36;;;;;;;0.17;0.17;;;;;;;;;;6279111;22;20019;-87
2022/07/30 07:45:02;;;;;;;0.10;0.10;;;;;;;;;;6279096;22;20019;-86
2022/07/30 07:47:28;;;;;;;0.17;0.17;;;;;;;;;;6279142;22;20011;-86
2022/07/30 07:49:55;;;;;;;0.10;0.10;;;;;;;;;;6278577;22;20013;-86
2022/07/30 07:52:21;;;;;;;0.20;0.20;;;;;;;;;;6279114;22;20011;-85
2022/07/30 07:54:47;;;;;;;0.10;0.10;;;;;;;;;;6279453;22;20042;-86
2022/07/30 07:57:13;;;;;;;0.10;0.10;;;;;;;;;;6274147;22;20022;-86
2022/07/30 07:59:39;;;;;;;0.10;0.10;;;;;;;;;;6248591;22;20011;-86
2022/07/30 08:02:05;;;;;;;0.15;0.15;;;;;;;;;;6274366;22;20049;-85
2022/07/30 08:04:31;;;;;;;0.15;0.15;;;;;;;;;;6252283;22;20011;-86
2022/07/30 08:06:57;;;;;;;0.10;0.10;;;;;;;;;;6244724;22;20011;-86
2022/07/30 08:09:23;;;;;;;0.10;0.10;;;;;;;;;;6279460;22;20441;-86
2022/07/30 08:11:49;;;;;;;0.17;0.17;;;;;;;;;;6279495;22;20013;-85
2022/07/30 08:14:15;;;;;;;0.13;0.13;;;;;;;;;;6279240;22;20448;-86
2022/07/30 08:16:41;;;;;;;0.10;0.10;;;;;;;;;;6279083;22;20022;-86
2022/07/30 08:19:07;;;;;;;0.20;0.20;;;;;;;;;;6272073;22;20011;-86
2022/07/30 08:21:33;;;;;;;0.10;0.10;;;;;;;;;;6278858;22;20027;-86
2022/07/30 08:23:58;;;;;;;0.20;0.20;;;;;;;;;;6279332;22;20048;-85
2022/07/30 08:26:24;;;;;;;0.20;0.20;;;;;;;;;;6279065;22;20015;-88
2022/07/30 08:28:51;;;;;;;0.10;0.10;;;;;;;;;;6243515;22;20038;-87
2022/07/30 08:31:17;;;;;;;0.20;0.20;;;;;;;;;;6223858;22;20008;-87
2022/07/30 08:33:43;;;;;;;0.15;0.15;;;;;;;;;;6253489;22;20011;-87
2022/07/30 08:36:09;;;;;;;0.20;0.20;;;;;;;;;;6248021;22;20015;-86
2022/07/30 08:38:35;;;;;;;0.20;0.20;;;;;;;;;;6276486;22;20050;-87
2022/07/30 08:41:01;;;;;;;0.20;0.20;;;;;;;;;;6279246;22;20384;-88
2022/07/30 08:43:27;;;;;;;0.15;0.15;;;;;;;;;;6250910;22;20023;-89
2022/07/30 08:45:53;;;;;;;0.20;0.20;;;;;;;;;;6269152;22;20027;-88
2022/07/30 08:48:21;;;;;;;0.10;0.10;;;;;;;;;;6247603;22;20012;-87
2022/07/30 08:50:47;;;;;;;0.20;0.20;;;;;;;;;;6242467;22;20061;-90
2022/07/30 08:53:13;;;;;;;0.20;0.20;;;;;;;;;;6248034;22;20008;-89
2022/07/30 08:55:40;;;;;;;0.30;0.30;;;;;;;;;;6223193;22;20019;-90
2022/07/30 08:58:06;;;;;;;0.20;0.20;;;;;;;;;;6222811;22;20498;-87
2022/07/30 09:00:32;;;;;;;0.17;0.17;;;;;;;;;;6252024;22;20012;-87
2022/07/30 09:02:59;;;;;;;0.17;0.17;;;;;;;;;;6278306;22;20039;-87
2022/07/30 09:05:25;;;;;;;0.20;0.20;;;;;;;;;;6278654;22;20093;-87
2022/07/30 09:07:51;;;;;;;0.20;0.20;;;;;;;;;;6278699;22;20050;-87
2022/07/30 09:10:17;;;;;;;0.20;0.20;;;;;;;;;;6276482;22;20011;-88
2022/07/30 09:12:43;;;;;;;0.10;0.10;;;;;;;;;;6278377;22;20380;-90
2022/07/30 09:15:16;;;;;;;0.20;0.20;;;;;;;;;;6253181;22;20067;-92
2022/07/30 09:17:54;;;;;;;0.10;0.10;;;;;;;;;;6277974;22;20440;-90
2022/07/30 09:20:20;;;;;;;0.20;0.20;;;;;;;;;;6253025;22;20012;-92
2022/07/30 09:22:47;;;;;;;0.20;0.20;;;;;;;;;;6268144;22;20094;-91
2022/07/30 09:25:14;;;;;;;0.20;0.20;;;;;;;;;;6223340;22;20412;-89
2022/07/30 09:27:47;;;;;;;0.20;0.20;;;;;;;;;;6222457;22;20073;-92
2022/07/30 09:30:13;;;;;;;0.20;0.20;;;;;;;;;;6222172;22;20094;-89
2022/07/30 09:32:47;;;;;;;0.17;0.17;;;;;;;;;;6222294;22;20037;-89
2022/07/30 09:35:13;;;;;;;0.20;0.20;;;;;;;;;;6222530;22;20318;-88
2022/07/30 09:37:39;;;;;;;0.40;0.40;;;;;;;;;;6247637;22;20019;-87
2022/07/30 09:40:12;;;;;;;0.30;0.30;;;;;;;;;;6270470;22;20314;-87
2022/07/30 09:42:38;;;;;;;0.20;0.20;;;;;;;;;;6278707;22;20019;-87
2022/07/30 09:45:08;;;;;;;0.20;0.20;;;;;;;;;;6271212;22;20023;-87
2022/07/30 09:47:35;;;;;;;0.20;0.20;;;;;;;;;;6277613;22;20457;-87
2022/07/30 09:50:08;;;;;;;0.20;0.20;;;;;;;;;;6278319;22;20502;-87
2022/07/30 09:52:34;;;;;;;0.17;0.17;;;;;;;;;;6278738;22;20011;-87
2022/07/30 09:55:00;;;;;;;0.20;0.20;;;;;;;;;;6270454;22;20046;-87
2022/07/30 09:57:26;;;;;;;0.20;0.20;;;;;;;;;;6250642;22;20022;-87
2022/07/30 09:59:52;;;;;;;0.20;0.20;;;;;;;;;;6252852;22;20019;-87
2022/07/30 10:02:18;;;;;;;0.20;0.20;;;;;;;;;;6274367;22;20026;-87
2022/07/30 10:04:44;;;;;;;0.10;0.10;;;;;;;;;;6267015;22;20015;-87
2022/07/30 10:07:20;;;;;;;0.20;0.20;;;;;;;;;;6249598;22;20069;-87
2022/07/30 10:09:47;;;;;;;0.17;0.17;;;;;;;;;;6236558;22;20372;-87
2022/07/30 10:12:13;;;;;;;1.13;0.50;;;;;;;;;;6255233;22;20039;-87
2022/07/30 10:14:41;;;;;;;0.28;0.28;;;;;;;;;;6248106;22;20019;-87
2022/07/30 10:17:07;;;;;;;0.20;0.20;;;;;;;;;;6221507;22;20042;-87
2022/07/30 10:19:33;;;;;;;0.10;0.10;;;;;;;;;;6251571;22;20073;-87
2022/07/30 10:21:59;;;;;;;0.20;0.20;;;;;;;;;;6244668;22;20046;-87
2022/07/30 10:24:25;;;;;;;0.30;0.30;;;;;;;;;;6224837;22;20016;-87
2022/07/30 10:26:51;;;;;;;0.10;0.10;;;;;;;;;;6253089;22;20016;-87
2022/07/30 10:29:18;;;;;;;0.20;0.20;;;;;;;;;;6248179;22;20012;-87
2022/07/30 10:31:44;;;;;;;0.20;0.20;;;;;;;;;;6266760;22;20227;-87
2022/07/30 10:34:11;;;;;;;0.20;0.20;;;;;;;;;;6247849;22;20061;-87
2022/07/30 10:36:37;;;;;;;0.20;0.20;;;;;;;;;;6252323;22;20045;-87
2022/07/30 10:39:03;;;;;;;0.20;0.20;;;;;;;;;;6277938;22;20011;-87
2022/07/30 10:41:32;;;;;;;0.10;0.10;;;;;;;;;;6252710;22;20015;-87
2022/07/30 10:44:24;;;;;;;0.10;0.10;;;;;;;;;;6278770;22;20018;-87
2022/07/30 10:47:04;;;;;;;0.10;0.10;;;;;;;;;;6271680;22;20015;-87
2022/07/30 10:49:30;;;;;;;0.20;0.20;;;;;;;;;;6276350;22;20090;-87
2022/07/30 10:51:56;;;;;;;0.10;0.10;;;;;;;;;;6269534;22;20007;-87
2022/07/30 10:54:35;;;;;;;0.38;0.30;;;;;;;;;;6223382;22;20059;-87
2022/07/30 10:57:12;;;;;;;0.20;0.20;;;;;;;;;;6278443;22;20525;-87
2022/07/30 11:00:01;;;;;;;0.25;0.25;;;;;;;;;;6278078;22;20015;-87
2022/07/30 11:02:28;;;;;;;0.20;0.20;;;;;;;;;;6214859;22;20047;-87
2022/07/30 11:05:13;;;;;;;0.20;0.20;;;;;;;;;;6306169;22;20012;-87
2022/07/30 11:07:39;;;;;;;0.20;0.20;;;;;;;;;;6280066;22;20490;-87
2022/07/30 11:10:05;;;;;;;0.20;0.20;;;;;;;;;;6247348;22;20011;-87
2022/07/30 11:12:44;;;;;;;0.20;0.20;;;;;;;;;;6252784;22;20090;-87
2022/07/30 11:15:14;;;;;;;0.20;0.20;;;;;;;;;;6280136;22;20065;-88
2022/07/30 11:17:59;;;;;;;0.30;0.30;;;;;;;;;;6279660;22;20019;-87
2022/07/30 11:20:25;;;;;;;0.20;0.20;;;;;;;;;;6280099;22;20016;-87
2022/07/30 11:22:52;;;;;;;0.43;0.43;;;;;;;;;;6280027;22;20015;-88
2022/07/30 11:25:21;;;;;;;0.20;0.20;;;;;;;;;;6279805;22;20444;-88
2022/07/30 11:27:50;;;;;;;0.20;0.20;;;;;;;;;;6279603;22;20015;-88
2022/07/30 11:30:17;;;;;;;0.20;0.20;;;;;;;;;;6279534;22;20509;-88
2022/07/30 11:32:53;;;;;;;0.20;0.20;;;;;;;;;;6280216;22;20007;-86
2022/07/30 11:35:20;;;;;;;0.20;0.20;;;;;;;;;;6280136;22;20053;-86
2022/07/30 11:37:55;;;;;;;0.20;0.20;;;;;;;;;;6279758;22;20045;-88
2022/07/30 11:40:23;;;;;;;0.20;0.20;;;;;;;;;;6275494;22;20024;-86
2022/07/30 11:42:49;;;;;;;0.15;0.15;;;;;;;;;;6243829;22;20019;-85
2022/07/30 11:45:15;;;;;;;0.68;0.40;;;;;;;;;;6249074;22;20011;-85
2022/07/30 11:47:45;;;;;;;0.20;0.20;;;;;;;;;;6279771;22;20008;-86
2022/07/30 11:50:17;;;;;;;0.10;0.10;;;;;;;;;;6254273;22;20015;-88
2022/07/30 11:52:53;;;;;;;0.10;0.10;;;;;;;;;;6249194;22;20011;-86
2022/07/30 11:55:24;;;;;;;0.20;0.20;;;;;;;;;;6250158;22;20019;-86
2022/07/30 11:57:50;;;;;;;0.13;0.13;;;;;;;;;;6279698;22;20023;-86
2022/07/30 12:00:17;;;;;;;0.10;0.10;;;;;;;;;;6274650;22;20453;-86
2022/07/30 12:02:43;;;;;;;0.20;0.20;;;;;;;;;;6267689;22;20404;-86
2022/07/30 12:05:09;;;;;;;0.20;0.20;;;;;;;;;;6274759;22;20018;-86
2022/07/30 12:07:35;;;;;;;0.20;0.20;;;;;;;;;;6253654;22;20047;-86
2022/07/30 12:10:13;;;;;;;0.20;0.20;;;;;;;;;;6280120;22;20014;-86
2022/07/30 12:12:39;;;;;;;0.20;0.20;;;;;;;;;;6279705;22;20305;-86
2022/07/30 12:15:05;;;;;;;0.20;0.20;;;;;;;;;;6272508;22;20362;-86
2022/07/30 12:17:41;;;;;;;0.20;0.20;;;;;;;;;;6252684;22;20011;-86
2022/07/30 12:20:14;;;;;;;0.20;0.20;;;;;;;;;;6279260;22;20015;-86
2022/07/30 12:22:40;;;;;;;0.10;0.10;;;;;;;;;;6279237;22;20019;-85
2022/07/30 12:25:07;;;;;;;0.20;0.20;;;;;;;;;;6279267;22;20034;-85
2022/07/30 12:27:33;;;;;;;0.20;0.20;;;;;;;;;;6279079;22;20011;-86
2022/07/30 12:29:59;;;;;;;0.10;0.10;;;;;;;;;;6279570;22;20003;-86
2022/07/30 12:32:25;;;;;;;0.20;0.20;;;;;;;;;;6279505;22;20012;-86
2022/07/30 12:34:55;;;;;;;0.45;0.32;;;;;;;;;;6279000;22;20057;-85
2022/07/30 12:37:21;;;;;;;0.20;0.20;;;;;;;;;;6278904;22;20093;-86
2022/07/30 12:39:48;;;;;;;0.15;0.15;;;;;;;;;;6278755;22;20054;-86
2022/07/30 12:42:17;;;;;;;0.10;0.10;;;;;;;;;;6253534;22;20023;-86
2022/07/30 12:44:43;;;;;;;0.20;0.20;;;;;;;;;;6248658;22;20089;-86
2022/07/30 12:47:20;;;;;;;0.13;0.13;;;;;;;;;;6223148;22;20012;-85
2022/07/30 12:49:46;;;;;;;0.28;0.28;;;;;;;;;;6248603;22;20008;-86
2022/07/30 12:52:28;;;;;;;0.15;0.15;;;;;;;;;;6248620;22;20018;-86
2022/07/30 12:54:57;;;;;;;0.20;0.20;;;;;;;;;;6248443;22;20450;-86
2022/07/30 12:57:23;;;;;;;0.20;0.20;;;;;;;;;;6272612;22;20046;-86
2022/07/30 13:00:00;;;;;;;0.20;0.20;;;;;;;;;;6268559;22;20332;-86
2022/07/30 13:02:33;;;;;;;0.10;0.10;;;;;;;;;;6251134;22;20394;-86
2022/07/30 13:04:59;;;;;;;0.10;0.10;;;;;;;;;;6278729;22;20021;-86
2022/07/30 13:07:28;;;;;;;0.20;0.20;;;;;;;;;;6278955;22;20011;-86
2022/07/30 13:10:10;;;;;;;0.10;0.10;;;;;;;;;;6278658;22;20013;-86
2022/07/30 13:12:36;;;;;;;;;;;;;;;;;;6279474;22;20092;-86
2022/07/30 13:15:02;;;;;;;0.20;0.20;;;;;;;;;;6278863;22;19915;-86
2022/07/30 13:17:29;;;;;;;0.10;0.10;;;;;;;;;;6253379;22;20494;-86
2022/07/30 13:19:55;;;;;;;0.10;0.10;;;;;;;;;;6278892;22;20436;-86
2022/07/30 13:22:21;;;;;;;0.10;0.10;;;;;;;;;;6275285;22;20150;-86
2022/07/30 13:24:47;;;;;;;0.10;0.10;;;;;;;;;;6242463;22;20098;-86
2022/07/30 13:27:15;;;;;;;0.20;0.20;;;;;;;;;;6273815;22;20069;-86
2022/07/30 13:29:41;;;;;;;0.10;0.10;;;;;;;;;;6248577;22;20035;-86
2022/07/30 13:32:07;;;;;;;0.20;0.20;;;;;;;;;;6248051;22;20008;-86
2022/07/30 13:34:33;;;;;;;0.10;0.10;;;;;;;;;;6276921;22;20059;-86
2022/07/30 13:36:59;;;;;;;0.10;0.10;;;;;;;;;;6278856;22;20022;-89
2022/07/30 13:39:25;;;;;;;0.13;0.13;;;;;;;;;;6249232;22;20047;-90
2022/07/30 13:41:51;;;;;;;0.20;0.20;;;;;;;;;;6243117;22;20352;-90
2022/07/30 13:44:17;;;;;;;0.20;0.20;;;;;;;;;;6274385;22;20043;-90
2022/07/30 13:46:43;;;;;;;0.20;0.20;;;;;;;;;;6241535;22;20022;-90
2022/07/30 13:49:09;;;;;;;0.30;0.30;;;;;;;;;;6248528;22;20016;-93
2022/07/30 13:51:35;;;;;;;0.10;0.10;;;;;;;;;;6228129;22;20011;-92
2022/07/30 13:54:01;;;;;;;0.20;0.20;;;;;;;;;;6254523;22;20082;-94
2022/07/30 13:56:27;;;;;;;0.20;0.20;;;;;;;;;;6250883;22;20015;-90
2022/07/30 13:58:53;;;;;;;0.10;0.10;;;;;;;;;;6243868;22;20011;-90
2022/07/30 14:01:19;;;;;;;0.20;0.20;;;;;;;;;;6223489;22;20462;-89
2022/07/30 14:03:45;;;;;;;0.20;0.20;;;;;;;;;;6278704;22;20015;-89
2022/07/30 14:06:11;;;;;;;0.13;0.13;;;;;;;;;;6278722;22;20415;-90
2022/07/30 14:08:38;;;;;;;0.17;0.17;;;;;;;;;;6278950;22;20015;-88
2022/07/30 14:11:04;;;;;;;0.15;0.15;;;;;;;;;;6253108;22;20211;-89
2022/07/30 14:13:30;;;;;;;0.10;0.10;;;;;;;;;;6276746;22;20132;-89
2022/07/30 14:15:57;;;;;;;0.20;0.20;;;;;;;;;;6269348;22;20008;-89
2022/07/30 14:18:23;;;;;;;3.50;0.90;;;;;;;;;;6224638;22;20016;-88
2022/07/30 14:20:51;;;;;;;0.10;0.10;;;;;;;;;;6252593;22;20007;-88
2022/07/30 14:23:17;;;;;;;0.10;0.10;;;;;;;;;;6222178;22;20090;-87
2022/07/30 14:25:43;;;;;;;0.20;0.20;;;;;;;;;;6241296;22;20053;-87
2022/07/30 14:28:09;;;;;;;0.20;0.20;;;;;;;;;;6222470;22;20012;-90
2022/07/30 14:30:36;;;;;;;0.20;0.20;;;;;;;;;;6226737;22;20038;-90
2022/07/30 14:33:02;;;;;;;0.20;0.20;;;;;;;;;;6278272;22;20064;-88
2022/07/30 14:35:28;;;;;;;0.28;0.28;;;;;;;;;;6278300;22;20191;-89
2022/07/30 14:37:54;;;;;;;0.10;0.10;;;;;;;;;;6253650;22;20337;-91
2022/07/30 14:40:20;;;;;;;0.10;0.10;;;;;;;;;;6250479;22;20018;-88
2022/07/30 14:42:46;;;;;;;0.15;0.15;;;;;;;;;;6268989;22;20322;-88
2022/07/30 14:45:12;;;;;;;0.20;0.20;;;;;;;;;;6280406;22;20015;-88